Time;durP1;ratioP1;P1;durP2;ratioP2;P2;SDS_P1;SDS_P2;PMS_P1;PMS_P2;Temp;Humidity;BMP_temperature;BMP_pressure;BME280_temperature;BME280_humidity;BME280_pressure;Samples;Min_cycle;Max_cycle;Signal;HPM_P1;HPM_P2
2022/10/19 00:00:44;;;;;;;5.70;3.70;;;12.60;59.30;;;;;;5071499;28;20029;-62
2022/10/19 00:03:10;;;;;;;5.32;3.47;;;12.50;59.40;;;;;;5086578;28;20082;-62
2022/10/19 00:05:35;;;;;;;5.80;3.63;;;12.50;59.50;;;;;;5071552;28;20028;-62
2022/10/19 00:08:01;;;;;;;6.57;3.17;;;12.40;59.60;;;;;;5069604;28;20036;-63
2022/10/19 00:10:27;;;;;;;5.65;3.20;;;12.40;59.80;;;;;;5070978;28;20024;-62
2022/10/19 00:12:53;;;;;;;4.75;3.10;;;12.40;59.80;;;;;;5069715;28;20075;-62
2022/10/19 00:15:19;;;;;;;4.05;3.00;;;12.40;59.90;;;;;;5075056;28;20033;-62
2022/10/19 00:17:44;;;;;;;3.85;2.90;;;12.40;59.90;;;;;;5071106;28;20081;-62
2022/10/19 00:20:11;;;;;;;5.75;3.45;;;12.40;60.10;;;;;;5071076;28;20028;-62
2022/10/19 00:22:37;;;;;;;4.55;2.97;;;12.40;60.10;;;;;;5072341;28;20013;-63
2022/10/19 00:25:03;;;;;;;4.32;3.08;;;12.30;60.20;;;;;;5070869;28;20531;-62
2022/10/19 00:27:30;;;;;;;5.78;3.10;;;12.30;60.20;;;;;;5070340;28;20464;-62
2022/10/19 00:29:55;;;;;;;5.30;3.10;;;12.30;60.10;;;;;;5078877;28;20055;-62
2022/10/19 00:32:21;;;;;;;3.88;3.20;;;12.30;60.30;;;;;;5086025;28;20499;-62
2022/10/19 00:34:47;;;;;;;3.85;2.90;;;12.30;60.40;;;;;;5084399;28;20648;-62
2022/10/19 00:37:12;;;;;;;4.68;3.05;;;12.30;60.50;;;;;;5083867;28;20103;-62
2022/10/19 00:39:38;;;;;;;3.55;3.05;;;12.30;60.50;;;;;;5070382;28;20032;-62
2022/10/19 00:42:03;;;;;;;5.47;3.53;;;12.30;60.50;;;;;;5069453;28;20028;-63
2022/10/19 00:44:29;;;;;;;4.43;3.10;;;12.30;60.60;;;;;;5072259;28;20396;-62
2022/10/19 00:47:02;;;;;;;4.65;3.42;;;12.30;60.70;;;;;;5070514;28;20020;-62
2022/10/19 00:49:31;;;;;;;3.22;2.80;;;12.20;60.70;;;;;;5070795;28;20043;-62
2022/10/19 00:52:03;;;;;;;4.45;3.30;;;12.20;60.80;;;;;;5070417;28;20099;-63
2022/10/19 00:54:31;;;;;;;3.75;3.17;;;12.20;61.00;;;;;;5074692;28;20119;-62
2022/10/19 00:56:58;;;;;;;5.93;3.55;;;12.10;60.90;;;;;;5074407;28;20040;-62
2022/10/19 00:59:27;;;;;;;4.90;3.58;;;12.10;61.10;;;;;;5074877;28;20135;-62
2022/10/19 01:01:53;;;;;;;3.50;2.95;;;12.10;61.10;;;;;;5074786;28;20104;-62
2022/10/19 01:04:21;;;;;;;4.68;2.95;;;12.10;61.20;;;;;;5074448;28;20020;-62
2022/10/19 01:06:46;;;;;;;3.83;3.03;;;12.10;61.40;;;;;;5074959;28;20023;-62
2022/10/19 01:09:12;;;;;;;3.75;2.97;;;12.10;61.50;;;;;;5074864;28;20024;-62
2022/10/19 01:11:59;;;;;;;4.45;2.92;;;12.00;61.40;;;;;;5074732;28;20031;-63
2022/10/19 01:14:47;;;;;;;3.42;2.85;;;12.10;61.50;;;;;;5073892;28;20025;-62
2022/10/19 01:17:27;;;;;;;5.32;3.08;;;12.00;61.60;;;;;;5087251;28;20020;-62
2022/10/19 01:20:22;;;;;;;4.75;3.10;;;12.00;61.70;;;;;;5074105;28;20546;-62
2022/10/19 01:23:12;;;;;;;4.30;3.05;;;12.00;61.70;;;;;;5063259;28;20071;-62
2022/10/19 01:25:48;;;;;;;4.28;2.95;;;11.90;61.90;;;;;;5078907;28;20070;-62
2022/10/19 01:28:32;;;;;;;3.15;2.78;;;11.90;62.00;;;;;;5073429;28;20016;-62
2022/10/19 01:31:16;;;;;;;2.97;2.35;;;11.90;61.90;;;;;;5073711;28;20379;-62
2022/10/19 01:34:15;;;;;;;4.32;3.17;;;11.90;62.00;;;;;;5073794;28;20024;-62
2022/10/19 01:36:56;;;;;;;3.33;2.83;;;11.90;62.10;;;;;;5074474;28;20035;-62
2022/10/19 01:39:21;;;;;;;3.08;2.70;;;11.90;62.20;;;;;;5074080;28;20039;-62
2022/10/19 01:41:58;;;;;;;3.70;2.80;;;11.90;62.30;;;;;;5074122;28;20020;-62
2022/10/19 01:45:00;;;;;;;5.03;3.30;;;11.90;62.40;;;;;;5073332;28;20028;-63
2022/10/19 01:47:33;;;;;;;4.28;2.97;;;11.90;62.50;;;;;;5065589;28;20103;-63
2022/10/19 01:50:11;;;;;;;4.75;3.17;;;11.90;62.60;;;;;;5075422;28;20506;-63
2022/10/19 01:52:39;;;;;;;4.72;3.28;;;11.90;62.70;;;;;;5074184;28;20020;-63
2022/10/19 01:55:08;;;;;;;3.78;2.97;;;11.90;62.60;;;;;;5074267;28;20030;-62
2022/10/19 01:57:42;;;;;;;4.50;3.15;;;11.90;62.80;;;;;;5075263;28;20032;-62
2022/10/19 02:00:11;;;;;;;4.70;3.47;;;11.90;62.80;;;;;;5074208;28;20127;-62
2022/10/19 02:02:42;;;;;;;4.18;3.28;;;11.80;62.70;;;;;;5074775;28;20040;-62
2022/10/19 02:05:10;;;;;;;3.92;3.20;;;11.80;62.90;;;;;;5073021;28;20025;-62
2022/10/19 02:07:39;;;;;;;3.55;2.90;;;11.80;62.90;;;;;;5066813;28;20086;-62
2022/10/19 02:10:06;;;;;;;3.78;2.85;;;11.80;63.00;;;;;;5073775;28;20468;-62
2022/10/19 02:12:33;;;;;;;3.83;2.58;;;11.80;63.20;;;;;;5072544;28;20025;-62
2022/10/19 02:15:08;;;;;;;4.00;3.00;;;11.80;63.10;;;;;;5072756;28;20054;-62
2022/10/19 02:17:39;;;;;;;3.53;3.05;;;11.80;63.20;;;;;;5072759;28;20373;-62
2022/10/19 02:20:05;;;;;;;3.67;2.88;;;11.80;63.30;;;;;;5071940;28;20085;-62
2022/10/19 02:22:31;;;;;;;3.30;2.50;;;11.80;63.30;;;;;;5075705;28;20028;-62
2022/10/19 02:24:57;;;;;;;3.70;2.80;;;11.80;63.50;;;;;;5079360;28;20017;-62
2022/10/19 02:27:23;;;;;;;4.10;3.22;;;11.80;63.60;;;;;;5072790;28;20146;-62
2022/10/19 02:29:49;;;;;;;3.50;2.75;;;11.80;63.70;;;;;;5066182;28;20050;-63
2022/10/19 02:32:14;;;;;;;3.35;2.88;;;11.80;63.80;;;;;;5090445;28;20043;-63
2022/10/19 02:34:40;;;;;;;3.63;3.03;;;11.70;63.80;;;;;;5072975;28;20032;-62
2022/10/19 02:37:06;;;;;;;4.10;3.03;;;11.70;63.90;;;;;;5092224;28;20471;-62
2022/10/19 02:39:32;;;;;;;4.60;3.30;;;11.70;63.90;;;;;;5078138;28;20430;-62
2022/10/19 02:42:10;;;;;;;3.72;2.80;;;11.70;63.90;;;;;;5085270;28;20081;-63
2022/10/19 02:45:06;;;;;;;3.70;2.80;;;11.70;64.00;;;;;;5083073;28;20032;-63
2022/10/19 02:47:37;;;;;;;3.05;2.67;;;11.70;64.00;;;;;;5090126;28;20081;-63
2022/10/19 02:50:04;;;;;;;;;;;11.70;64.20;;;;;;5082338;28;20020;-62
2022/10/19 02:52:30;;;;;;;4.35;2.90;;;11.60;64.30;;;;;;5086778;28;19909;-63
2022/10/19 02:54:55;;;;;;;4.80;2.88;;;11.60;64.20;;;;;;5085082;28;20029;-62
2022/10/19 02:57:23;;;;;;;5.13;3.05;;;11.60;64.20;;;;;;5076843;28;20028;-62
2022/10/19 02:59:50;;;;;;;3.90;3.00;;;11.60;64.40;;;;;;5090562;28;20043;-62
2022/10/19 03:02:17;;;;;;;4.15;2.78;;;11.60;64.40;;;;;;5087944;28;20554;-63
2022/10/19 03:04:44;;;;;;;4.43;2.90;;;11.60;64.50;;;;;;5090715;28;20024;-62
2022/10/19 03:07:13;;;;;;;3.75;2.85;;;11.60;64.50;;;;;;5081423;28;20095;-63
2022/10/19 03:09:39;;;;;;;3.60;2.78;;;11.60;64.70;;;;;;5090562;28;20157;-62
2022/10/19 03:12:05;;;;;;;4.18;3.00;;;11.60;64.70;;;;;;5089109;28;20039;-63
2022/10/19 03:14:30;;;;;;;4.38;3.20;;;11.60;64.70;;;;;;5079538;28;20032;-62
2022/10/19 03:16:56;;;;;;;4.20;3.10;;;11.60;64.70;;;;;;5086345;28;20020;-62
2022/10/19 03:19:22;;;;;;;2.78;2.55;;;11.60;64.90;;;;;;5082415;28;20040;-62
2022/10/19 03:21:47;;;;;;;3.70;3.00;;;11.60;64.80;;;;;;5069998;28;20434;-62
2022/10/19 03:24:13;;;;;;;4.43;3.05;;;11.60;64.90;;;;;;5071039;28;20024;-62
2022/10/19 03:26:39;;;;;;;2.95;2.72;;;11.60;65.00;;;;;;5071845;28;20451;-62
2022/10/19 03:29:04;;;;;;;4.07;3.15;;;11.60;65.10;;;;;;5065196;28;20100;-62
2022/10/19 03:31:30;;;;;;;3.63;2.70;;;11.60;65.10;;;;;;5070345;28;20720;-63
2022/10/19 03:33:55;;;;;;;4.10;3.08;;;11.60;65.20;;;;;;5072186;28;20024;-63
2022/10/19 03:36:25;;;;;;;4.05;2.72;;;11.50;65.30;;;;;;5071978;28;20024;-63
2022/10/19 03:38:56;;;;;;;3.55;3.00;;;11.60;65.30;;;;;;5072134;28;20028;-62
2022/10/19 03:41:24;;;;;;;4.07;2.92;;;11.60;65.50;;;;;;5071319;28;20047;-63
2022/10/19 03:43:50;;;;;;;4.13;2.70;;;11.60;65.50;;;;;;5072073;28;20016;-63
2022/10/19 03:46:16;;;;;;;3.53;2.88;;;11.60;65.50;;;;;;5072713;28;20029;-62
2022/10/19 03:48:42;;;;;;;3.22;2.72;;;11.60;65.60;;;;;;5071722;28;20023;-62
2022/10/19 03:51:19;;;;;;;3.78;2.88;;;11.60;65.60;;;;;;5071621;28;20115;-62
2022/10/19 03:53:45;;;;;;;4.05;3.00;;;11.60;65.60;;;;;;5071971;28;20468;-62
2022/10/19 03:56:16;;;;;;;4.40;3.00;;;11.60;65.70;;;;;;5072479;28;20028;-63
2022/10/19 03:58:43;;;;;;;4.22;3.20;;;11.60;65.80;;;;;;5072321;28;20076;-62
2022/10/19 04:01:18;;;;;;;3.33;3.03;;;11.60;65.90;;;;;;5071888;28;20550;-62
2022/10/19 04:03:44;;;;;;;3.58;2.58;;;11.60;66.00;;;;;;5071915;28;20039;-62
2022/10/19 04:06:16;;;;;;;3.55;2.67;;;11.60;66.10;;;;;;5070853;28;20060;-62
2022/10/19 04:08:43;;;;;;;4.45;3.08;;;11.60;66.20;;;;;;5065106;28;20024;-62
2022/10/19 04:11:12;;;;;;;4.20;3.22;;;11.60;66.30;;;;;;5071791;28;20517;-62
2022/10/19 04:13:38;;;;;;;3.35;2.70;;;11.60;66.30;;;;;;5072116;28;20028;-63
2022/10/19 04:16:04;;;;;;;3.55;3.00;;;11.60;66.20;;;;;;5072317;28;20020;-62
2022/10/19 04:18:30;;;;;;;3.42;3.10;;;11.60;66.30;;;;;;5071203;28;20020;-63
2022/10/19 04:20:56;;;;;;;3.30;2.90;;;11.60;66.30;;;;;;5069787;28;20031;-63
2022/10/19 04:23:23;;;;;;;3.42;3.00;;;11.60;66.30;;;;;;5070761;28;20024;-62
2022/10/19 04:25:48;;;;;;;3.65;3.13;;;11.60;66.30;;;;;;5077632;28;20070;-63
2022/10/19 04:28:14;;;;;;;4.82;3.25;;;11.60;66.40;;;;;;5086689;28;20052;-63
2022/10/19 04:30:39;;;;;;;6.03;3.00;;;11.60;66.50;;;;;;5084312;28;20077;-63
2022/10/19 04:33:05;;;;;;;3.42;2.92;;;11.60;66.50;;;;;;5091042;28;20145;-63
2022/10/19 04:35:31;;;;;;;5.07;3.13;;;11.60;66.50;;;;;;5090316;28;20065;-63
2022/10/19 04:37:58;;;;;;;3.75;3.00;;;11.60;66.50;;;;;;5089469;28;20039;-63
2022/10/19 04:40:24;;;;;;;4.43;3.60;;;11.60;66.60;;;;;;5080340;28;20055;-62
2022/10/19 04:42:50;;;;;;;4.05;2.95;;;11.60;66.70;;;;;;5076257;28;20024;-63
2022/10/19 04:45:16;;;;;;;5.20;3.20;;;11.60;66.70;;;;;;5094263;28;20021;-62
2022/10/19 04:47:41;;;;;;;5.25;3.70;;;11.60;66.80;;;;;;5094298;28;20025;-62
2022/10/19 04:50:07;;;;;;;4.25;3.28;;;11.60;67.00;;;;;;5078610;28;20063;-63
2022/10/19 04:52:34;;;;;;;4.28;3.00;;;11.60;67.10;;;;;;5085659;28;20031;-62
2022/10/19 04:55:00;;;;;;;4.55;3.15;;;11.60;67.10;;;;;;5087680;28;20020;-63
2022/10/19 04:57:25;;;;;;;3.67;3.10;;;11.60;67.30;;;;;;5087061;28;20017;-63
2022/10/19 04:59:51;;;;;;;4.65;3.28;;;11.60;67.30;;;;;;5074083;28;20040;-62
2022/10/19 05:02:17;;;;;;;4.38;3.40;;;11.60;67.40;;;;;;5086791;28;20369;-62
2022/10/19 05:04:42;;;;;;;4.40;3.00;;;11.60;67.50;;;;;;5083897;28;20521;-63
2022/10/19 05:07:08;;;;;;;3.30;2.90;;;11.60;67.50;;;;;;5077923;28;20107;-63
2022/10/19 05:09:34;;;;;;;4.57;3.08;;;11.70;67.60;;;;;;5079010;28;20504;-62
2022/10/19 05:11:59;;;;;;;5.90;3.60;;;11.70;67.60;;;;;;5073782;28;20036;-62
2022/10/19 05:14:25;;;;;;;4.55;3.13;;;11.80;67.60;;;;;;5087604;28;20049;-63
2022/10/19 05:16:50;;;;;;;4.45;3.15;;;11.80;67.60;;;;;;5093618;28;20036;-63
2022/10/19 05:19:16;;;;;;;4.45;3.25;;;11.80;67.60;;;;;;5079712;28;20035;-63
2022/10/19 05:21:42;;;;;;;3.67;2.88;;;11.90;67.60;;;;;;5086848;28;20020;-63
2022/10/19 05:24:12;;;;;;;3.95;3.05;;;12.00;67.60;;;;;;5093856;28;20028;-63
2022/10/19 05:26:37;;;;;;;3.67;3.10;;;12.10;67.70;;;;;;5072920;28;20115;-62
2022/10/19 05:29:03;;;;;;;4.43;2.92;;;12.10;67.50;;;;;;5079947;28;20051;-63
2022/10/19 05:31:32;;;;;;;3.65;2.88;;;12.20;67.50;;;;;;5075930;28;20036;-62
2022/10/19 05:33:59;;;;;;;4.50;3.10;;;12.30;67.40;;;;;;5078809;28;20112;-63
2022/10/19 05:36:27;;;;;;;3.65;3.10;;;12.40;67.30;;;;;;5085287;28;20016;-62
2022/10/19 05:38:55;;;;;;;4.22;3.10;;;12.50;67.20;;;;;;5073450;28;20542;-62
2022/10/19 05:41:22;;;;;;;3.25;2.92;;;12.60;67.10;;;;;;5080554;28;20031;-62
2022/10/19 05:43:52;;;;;;;4.38;3.03;;;12.70;66.90;;;;;;5076293;28;20077;-62
2022/10/19 05:46:18;;;;;;;3.67;3.13;;;12.70;66.60;;;;;;5080689;28;20529;-62
2022/10/19 05:48:45;;;;;;;4.28;3.10;;;12.70;66.50;;;;;;5077449;28;20032;-62
2022/10/19 05:51:13;;;;;;;3.22;2.63;;;12.80;66.50;;;;;;5076624;28;20089;-63
2022/10/19 05:53:39;;;;;;;4.85;3.33;;;12.80;66.50;;;;;;5074291;28;20483;-63
2022/10/19 05:56:07;;;;;;;4.82;3.30;;;12.80;66.40;;;;;;5072278;28;20039;-62
2022/10/19 05:58:34;;;;;;;4.35;3.42;;;12.80;66.40;;;;;;5069515;28;20730;-62
2022/10/19 06:01:00;;;;;;;3.80;3.17;;;12.80;66.40;;;;;;5072003;28;20044;-62
2022/10/19 06:03:27;;;;;;;4.65;3.72;;;12.80;66.40;;;;;;5077347;28;20539;-62
2022/10/19 06:05:53;;;;;;;4.30;3.00;;;12.80;66.40;;;;;;5069367;28;20027;-63
2022/10/19 06:08:20;;;;;;;4.25;3.35;;;12.80;66.40;;;;;;5068145;28;20044;-62
2022/10/19 06:10:47;;;;;;;4.72;3.25;;;12.80;66.40;;;;;;5067684;28;20025;-62
2022/10/19 06:13:14;;;;;;;3.95;2.92;;;12.80;66.50;;;;;;5068808;28;20464;-62
2022/10/19 06:15:39;;;;;;;4.88;3.42;;;12.90;66.60;;;;;;5067305;28;20557;-63
2022/10/19 06:18:06;;;;;;;4.57;3.35;;;13.00;66.70;;;;;;5068669;28;20028;-62
2022/10/19 06:20:40;;;;;;;4.28;2.65;;;13.10;66.70;;;;;;5067171;28;20410;-63
2022/10/19 06:23:07;;;;;;;4.53;3.08;;;13.20;66.70;;;;;;5067458;28;20021;-62
2022/10/19 06:25:34;;;;;;;4.60;3.38;;;13.30;66.60;;;;;;5064517;28;20028;-62
2022/10/19 06:28:00;;;;;;;3.35;2.78;;;13.40;66.60;;;;;;5062890;28;20027;-63
2022/10/19 06:30:26;;;;;;;4.43;3.15;;;13.50;66.40;;;;;;5056212;28;20024;-63
2022/10/19 06:32:51;;;;;;;4.88;3.70;;;13.60;66.30;;;;;;5063800;28;20043;-63
2022/10/19 06:35:17;;;;;;;5.13;3.42;;;13.70;66.10;;;;;;5072314;28;20491;-63
2022/10/19 06:37:43;;;;;;;4.47;3.13;;;13.80;66.00;;;;;;5064228;28;20033;-63
2022/10/19 06:40:10;;;;;;;4.97;3.30;;;13.90;65.80;;;;;;5069792;28;20039;-63
2022/10/19 06:42:38;;;;;;;3.83;2.97;;;14.00;65.70;;;;;;5077338;28;20530;-62
2022/10/19 06:45:08;;;;;;;4.03;3.20;;;14.10;65.70;;;;;;5073006;28;20044;-63
2022/10/19 06:47:35;;;;;;;4.13;3.30;;;14.20;65.50;;;;;;5068743;28;20051;-63
2022/10/19 06:50:05;;;;;;;4.45;3.17;;;14.30;65.50;;;;;;5067813;28;20042;-63
2022/10/19 06:52:32;;;;;;;6.35;4.28;;;14.40;65.40;;;;;;5074299;28;20028;-62
2022/10/19 06:54:57;;;;;;;5.53;3.97;;;14.40;65.10;;;;;;5057584;28;20055;-63
2022/10/19 06:57:23;;;;;;;5.18;3.60;;;14.50;65.00;;;;;;5068056;28;20524;-63
2022/10/19 06:59:49;;;;;;;6.38;3.83;;;14.50;64.80;;;;;;5060631;28;20041;-63
2022/10/19 07:02:14;;;;;;;4.97;3.83;;;14.60;64.80;;;;;;5055738;28;20613;-63
2022/10/19 07:04:40;;;;;;;9.65;4.63;;;14.60;64.70;;;;;;5058277;28;20029;-63
2022/10/19 07:07:06;;;;;;;5.95;3.92;;;14.60;64.60;;;;;;5058227;28;20471;-63
2022/10/19 07:09:32;;;;;;;5.35;4.20;;;14.70;64.70;;;;;;5055220;28;20025;-63
2022/10/19 07:11:57;;;;;;;4.40;3.47;;;14.80;64.70;;;;;;5054631;28;20025;-62
2022/10/19 07:14:23;;;;;;;6.05;4.40;;;14.80;64.70;;;;;;5061024;28;20052;-63
2022/10/19 07:16:50;;;;;;;7.15;4.72;;;14.90;64.80;;;;;;5061015;28;20078;-63
2022/10/19 07:19:16;;;;;;;7.20;5.07;;;15.00;64.70;;;;;;5060522;28;20043;-63
2022/10/19 07:21:42;;;;;;;7.32;5.15;;;15.10;64.70;;;;;;5052387;28;20909;-61
2022/10/19 07:24:08;;;;;;;7.38;5.45;;;15.10;64.50;;;;;;5059227;28;20021;-63
2022/10/19 07:26:34;;;;;;;8.95;6.35;;;15.20;65.20;;;;;;5062118;28;20405;-62
2022/10/19 07:29:00;;;;;;;6.10;4.80;;;15.30;64.60;;;;;;5064000;28;20028;-62
2022/10/19 07:31:27;;;;;;;6.25;4.75;;;15.30;64.60;;;;;;5069509;28;20043;-62
2022/10/19 07:33:57;;;;;;;6.65;4.80;;;15.40;64.80;;;;;;5064756;28;20029;-62
2022/10/19 07:36:24;;;;;;;8.25;6.15;;;15.40;64.90;;;;;;5061619;28;20035;-62
2022/10/19 07:38:50;;;;;;;7.03;4.68;;;15.50;64.70;;;;;;5050512;28;20040;-62
2022/10/19 07:41:18;;;;;;;8.85;6.00;;;15.50;64.70;;;;;;5056910;28;20035;-63
2022/10/19 07:43:45;;;;;;;8.05;5.57;;;15.50;64.80;;;;;;5054468;28;20078;-62
2022/10/19 07:46:14;;;;;;;8.18;6.30;;;15.60;64.70;;;;;;5062633;28;20506;-62
2022/10/19 07:48:40;;;;;;;9.57;6.25;;;15.60;64.70;;;;;;5053601;28;20028;-62
2022/10/19 07:51:08;;;;;;;6.75;5.10;;;15.50;64.60;;;;;;5055144;28;20044;-62
2022/10/19 07:53:34;;;;;;;9.45;5.90;;;15.50;64.70;;;;;;5064267;28;20620;-62
2022/10/19 07:56:05;;;;;;;7.32;5.18;;;15.50;64.80;;;;;;5058068;28;20028;-61
2022/10/19 07:58:31;;;;;;;10.13;6.20;;;15.40;64.80;;;;;;5053991;28;20024;-62
2022/10/19 08:01:08;;;;;;;7.38;5.05;;;15.40;64.90;;;;;;5043996;28;20037;-62
2022/10/19 08:03:35;;;;;;;6.90;5.75;;;15.30;64.90;;;;;;5042291;28;20109;-62
2022/10/19 08:06:05;;;;;;;6.55;4.85;;;15.20;65.00;;;;;;5055282;28;20818;-62
2022/10/19 08:08:31;;;;;;;7.10;5.30;;;15.20;65.20;;;;;;5049012;28;20039;-61
2022/10/19 08:11:04;;;;;;;7.88;5.55;;;15.10;65.30;;;;;;5045909;28;20064;-61
2022/10/19 08:13:31;;;;;;;7.95;5.55;;;15.10;65.50;;;;;;5051892;28;20396;-62
2022/10/19 08:15:57;;;;;;;10.98;7.25;;;15.00;65.70;;;;;;5052951;28;20036;-62
2022/10/19 08:18:22;;;;;;;8.80;6.65;;;15.00;65.90;;;;;;5049974;28;21877;-62
2022/10/19 08:20:48;;;;;;;7.90;5.32;;;14.90;66.00;;;;;;5045650;28;20119;-62
2022/10/19 08:23:15;;;;;;;11.18;6.07;;;14.90;66.10;;;;;;5052269;28;20025;-62
2022/10/19 08:25:40;;;;;;;8.98;5.82;;;14.80;66.20;;;;;;5050721;28;20125;-62
2022/10/19 08:28:06;;;;;;;8.60;5.72;;;14.80;66.60;;;;;;5051006;28;20381;-62
2022/10/19 08:30:34;;;;;;;9.52;6.47;;;14.70;66.70;;;;;;5052816;28;20020;-62
2022/10/19 08:33:00;;;;;;;10.32;6.57;;;14.70;67.00;;;;;;5052371;28;20028;-62
2022/10/19 08:35:25;;;;;;;9.27;6.45;;;14.70;67.30;;;;;;5045619;28;20076;-62
2022/10/19 08:37:51;;;;;;;8.52;6.40;;;14.60;67.70;;;;;;5049003;28;20871;-62
2022/10/19 08:40:20;;;;;;;10.10;6.78;;;14.50;67.90;;;;;;5052702;28;20099;-62
2022/10/19 08:42:51;;;;;;;10.30;7.07;;;14.50;68.30;;;;;;5047622;28;20028;-62
2022/10/19 08:45:36;;;;;;;10.18;7.07;;;14.40;68.60;;;;;;5061219;28;20060;-62
2022/10/19 08:48:06;;;;;;;8.45;6.50;;;14.40;69.00;;;;;;5053635;28;20039;-62
2022/10/19 08:50:41;;;;;;;8.52;6.30;;;14.30;69.20;;;;;;5057257;28;20020;-62
2022/10/19 08:53:18;;;;;;;9.35;5.97;;;14.30;69.50;;;;;;5056938;28;20032;-62
2022/10/19 08:56:06;;;;;;;8.07;5.18;;;14.30;69.70;;;;;;5052110;28;20482;-62
2022/10/19 08:58:41;;;;;;;7.57;5.10;;;14.30;69.90;;;;;;5035146;28;20110;-62
2022/10/19 09:01:12;;;;;;;8.02;6.03;;;14.20;70.00;;;;;;5041548;28;20056;-62
2022/10/19 09:03:47;;;;;;;7.53;6.15;;;14.20;70.20;;;;;;5051115;28;20024;-62
2022/10/19 09:06:36;;;;;;;10.38;6.00;;;14.20;70.50;;;;;;5054820;28;20040;-62
2022/10/19 09:09:02;;;;;;;9.68;6.60;;;14.20;70.50;;;;;;5052654;28;20121;-62
2022/10/19 09:11:37;;;;;;;8.55;6.10;;;14.20;70.80;;;;;;5051066;28;20108;-62
2022/10/19 09:14:21;;;;;;;8.20;6.18;;;14.20;71.00;;;;;;5057840;28;20021;-62
2022/10/19 09:16:47;;;;;;;8.52;5.85;;;14.20;71.00;;;;;;5050611;28;20032;-62
2022/10/19 09:19:24;;;;;;;7.18;5.57;;;14.20;71.20;;;;;;5037661;28;20536;-62
2022/10/19 09:21:56;;;;;;;8.32;5.65;;;14.20;71.30;;;;;;5051055;28;20457;-62
2022/10/19 09:24:28;;;;;;;7.18;5.70;;;14.20;71.50;;;;;;5049313;28;20891;-62
2022/10/19 09:27:01;;;;;;;10.05;6.13;;;14.20;71.60;;;;;;5050911;28;20098;-62
2022/10/19 09:29:41;;;;;;;8.38;5.82;;;14.20;71.80;;;;;;5054366;28;20028;-62
2022/10/19 09:32:18;;;;;;;6.95;5.35;;;14.20;72.00;;;;;;5054006;28;20037;-62
2022/10/19 09:35:02;;;;;;;7.90;5.95;;;14.20;72.20;;;;;;5054730;28;20524;-62
2022/10/19 09:37:33;;;;;;;9.23;5.95;;;14.20;72.40;;;;;;5051622;28;20028;-61
2022/10/19 09:39:59;;;;;;;8.70;6.47;;;14.10;72.60;;;;;;5051418;28;20052;-62
2022/10/19 09:42:31;;;;;;;6.57;5.43;;;14.10;72.90;;;;;;5050777;28;20116;-61
2022/10/19 09:44:59;;;;;;;8.30;6.32;;;14.10;73.20;;;;;;5051897;28;20148;-62
2022/10/19 09:47:33;;;;;;;7.28;6.18;;;14.10;73.40;;;;;;5041757;28;20098;-62
2022/10/19 09:50:24;;;;;;;8.90;6.25;;;14.10;73.70;;;;;;5047734;28;20155;-62
2022/10/19 09:52:52;;;;;;;6.55;5.20;;;14.10;73.90;;;;;;5030627;28;20068;-62
2022/10/19 09:55:37;;;;;;;5.97;4.63;;;14.10;74.00;;;;;;5046820;28;20052;-62
2022/10/19 09:58:15;;;;;;;7.85;5.30;;;14.10;74.00;;;;;;5041881;28;20115;-62
2022/10/19 10:00:45;;;;;;;9.10;6.25;;;14.20;74.10;;;;;;5053586;28;20435;-62
2022/10/19 10:03:38;;;;;;;8.10;5.60;;;14.30;74.30;;;;;;5048615;28;20535;-61
2022/10/19 10:06:06;;;;;;;8.52;6.57;;;14.30;74.30;;;;;;5054276;28;20730;-62
2022/10/19 10:08:58;;;;;;;7.97;5.90;;;14.30;74.70;;;;;;5048999;28;20040;-63
2022/10/19 10:11:26;;;;;;;8.80;7.03;;;14.30;74.70;;;;;;5052336;28;20491;-62
2022/10/19 10:13:53;;;;;;;9.35;7.05;;;14.30;74.90;;;;;;5047921;28;20036;-62
2022/10/19 10:16:22;;;;;;;8.38;6.28;;;14.30;75.10;;;;;;5052121;28;20040;-63
2022/10/19 10:18:54;;;;;;;10.35;6.90;;;14.20;75.30;;;;;;5047382;28;20032;-61
2022/10/19 10:21:21;;;;;;;7.88;6.22;;;14.30;75.50;;;;;;5044635;28;20115;-61
2022/10/19 10:24:11;;;;;;;8.32;6.20;;;14.20;75.90;;;;;;5048362;28;20021;-62
2022/10/19 10:26:57;;;;;;;7.57;5.70;;;14.20;75.90;;;;;;5044877;28;20803;-62
2022/10/19 10:29:29;;;;;;;9.68;6.05;;;14.20;76.20;;;;;;5042637;28;20111;-63
2022/10/19 10:32:11;;;;;;;7.97;5.70;;;14.20;76.20;;;;;;5045480;28;20024;-63
2022/10/19 10:34:42;;;;;;;7.55;5.75;;;14.30;76.60;;;;;;5045597;28;20020;-62
2022/10/19 10:37:21;;;;;;;8.30;6.40;;;14.30;76.60;;;;;;5048860;28;20159;-62
2022/10/19 10:39:51;;;;;;;9.60;7.20;;;14.30;76.70;;;;;;5051698;28;20032;-62
2022/10/19 10:42:23;;;;;;;8.45;6.50;;;14.30;76.90;;;;;;5044288;28;20029;-62
2022/10/19 10:44:52;;;;;;;8.50;6.20;;;14.30;77.00;;;;;;5046052;28;20051;-62
2022/10/19 10:47:21;;;;;;;9.55;5.82;;;14.20;77.20;;;;;;5043773;28;20032;-62
2022/10/19 10:50:00;;;;;;;8.15;6.20;;;14.20;77.20;;;;;;5041693;28;20044;-62
2022/10/19 10:52:30;;;;;;;7.82;5.38;;;14.20;77.30;;;;;;5044184;28;20036;-62
2022/10/19 10:55:21;;;;;;;9.18;6.35;;;14.20;77.60;;;;;;5044383;28;20158;-62
2022/10/19 10:57:50;;;;;;;7.55;5.40;;;14.20;77.80;;;;;;5038420;28;20048;-61
2022/10/19 11:00:19;;;;;;;8.20;6.18;;;14.20;77.80;;;;;;5043389;28;20051;-62
2022/10/19 11:02:57;;;;;;;8.68;6.65;;;14.20;77.90;;;;;;5049157;28;20025;-62
2022/10/19 11:05:48;;;;;;;11.35;7.20;;;14.20;78.10;;;;;;5047248;28;20103;-63
2022/10/19 11:08:40;;;;;;;9.48;7.15;;;14.20;78.20;;;;;;5045588;28;20075;-62
2022/10/19 11:11:16;;;;;;;10.05;6.18;;;14.20;78.20;;;;;;5049777;28;20036;-62
2022/10/19 11:14:18;;;;;;;8.27;6.63;;;14.20;78.20;;;;;;5046262;28;20024;-62
2022/10/19 11:16:46;;;;;;;7.35;5.68;;;14.20;78.30;;;;;;5042171;28;22679;-62
2022/10/19 11:19:38;;;;;;;10.02;6.88;;;14.20;78.30;;;;;;5046968;28;20036;-62
2022/10/19 11:22:25;;;;;;;8.25;6.15;;;14.20;78.30;;;;;;5049584;28;20387;-63
2022/10/19 11:25:17;;;;;;;8.48;6.13;;;14.20;78.30;;;;;;5047813;28;20028;-62
2022/10/19 11:28:02;;;;;;;7.72;5.80;;;14.20;78.40;;;;;;5041186;28;20020;-61
2022/10/19 11:30:33;;;;;;;8.25;5.78;;;14.20;78.50;;;;;;5045525;28;20066;-62
2022/10/19 11:33:18;;;;;;;9.45;5.95;;;14.20;78.60;;;;;;5041299;28;20029;-62
2022/10/19 11:35:52;;;;;;;7.97;5.45;;;14.20;78.60;;;;;;5044921;28;20626;-62
2022/10/19 11:38:41;;;;;;;7.43;5.70;;;14.20;78.90;;;;;;5050971;28;20060;-62
2022/10/19 11:41:34;;;;;;;7.30;5.28;;;14.10;78.90;;;;;;5047803;28;20502;-62
2022/10/19 11:44:16;;;;;;;6.82;5.18;;;14.10;78.90;;;;;;5048549;28;20376;-62
2022/10/19 11:47:31;;;;;;;9.60;6.68;;;14.10;79.00;;;;;;5053722;28;20024;-62
2022/10/19 11:50:05;;;;;;;6.88;5.88;;;14.10;79.10;;;;;;5037407;28;20087;-62
2022/10/19 11:53:03;;;;;;;7.95;6.30;;;14.10;79.30;;;;;;5046418;28;20105;-62
2022/10/19 11:55:32;;;;;;;7.90;5.93;;;14.10;79.40;;;;;;5040395;28;20044;-62
2022/10/19 11:58:24;;;;;;;8.57;6.55;;;14.10;79.60;;;;;;5041538;28;20060;-62
2022/10/19 12:00:59;;;;;;;7.55;5.15;;;14.10;79.80;;;;;;5038420;28;20032;-61
2022/10/19 12:04:06;;;;;;;8.93;6.90;;;14.10;79.80;;;;;;5046959;28;20535;-62
2022/10/19 12:06:45;;;;;;;7.20;5.57;;;14.20;79.90;;;;;;5041347;28;20040;-62
2022/10/19 12:09:40;;;;;;;10.68;6.28;;;14.20;79.80;;;;;;5039470;28;20039;-62
2022/10/19 12:12:08;;;;;;;6.68;5.05;;;14.30;79.80;;;;;;5040998;28;20809;-63
2022/10/19 12:14:38;;;;;;;7.68;5.43;;;14.30;79.80;;;;;;5045937;28;20727;-62
2022/10/19 12:17:24;;;;;;;7.63;5.85;;;14.30;79.90;;;;;;5043156;28;20093;-63
2022/10/19 12:19:54;;;;;;;10.88;6.35;;;14.40;79.80;;;;;;5051753;28;20553;-62
2022/10/19 12:22:25;;;;;;;7.80;5.68;;;14.40;80.00;;;;;;5046250;28;20012;-62
2022/10/19 12:24:54;;;;;;;7.25;5.95;;;14.40;80.10;;;;;;5046674;28;20021;-61
2022/10/19 12:27:34;;;;;;;6.72;4.75;;;14.40;80.10;;;;;;5045043;28;20078;-62
2022/10/19 12:30:07;;;;;;;7.43;5.63;;;14.40;80.10;;;;;;5047677;28;20060;-62
2022/10/19 12:32:50;;;;;;;7.20;5.18;;;14.40;79.90;;;;;;5047054;28;20146;-62
2022/10/19 12:35:37;;;;;;;7.50;5.32;;;14.50;79.90;;;;;;5038583;28;20876;-63
2022/10/19 12:38:12;;;;;;;7.03;5.05;;;14.50;80.00;;;;;;5036077;28;20033;-62
2022/10/19 12:40:38;;;;;;;7.40;5.25;;;14.50;79.90;;;;;;5042734;28;20025;-62
2022/10/19 12:43:15;;;;;;;7.05;5.30;;;14.50;79.70;;;;;;5038628;28;20035;-62
2022/10/19 12:46:00;;;;;;;6.47;5.10;;;14.50;79.70;;;;;;5039603;28;20035;-62
2022/10/19 12:48:25;;;;;;;7.60;4.93;;;14.60;79.60;;;;;;5048136;28;20926;-62
2022/10/19 12:50:55;;;;;;;7.05;4.95;;;14.60;79.60;;;;;;5050480;28;20040;-63
2022/10/19 12:53:25;;;;;;;6.88;5.40;;;14.60;80.20;;;;;;5054244;28;20127;-62
2022/10/19 12:56:10;;;;;;;7.47;5.15;;;14.60;79.60;;;;;;5045328;28;20399;-62
2022/10/19 12:58:45;;;;;;;5.35;4.15;;;14.50;79.40;;;;;;5049788;28;20941;-62
2022/10/19 13:01:32;;;;;;;6.47;5.05;;;14.50;79.40;;;;;;5042605;28;20109;-63
2022/10/19 13:04:15;;;;;;;7.93;5.20;;;14.50;79.40;;;;;;5045209;28;20028;-62
2022/10/19 13:06:57;;;;;;;6.45;4.70;;;14.50;79.40;;;;;;5048708;28;20032;-61